sensor_id;sensor_type;location;lat;lon;timestamp;P1;durP1;ratioP1;P2;durP2;ratioP2
39094;SDS011;24840;47.508;19.376;2024-03-08T00:01:52;29.53;;;21.73;;
39094;SDS011;24840;47.508;19.376;2024-03-08T00:04:18;36.37;;;25.03;;
39094;SDS011;24840;47.508;19.376;2024-03-08T00:06:44;34.83;;;21.57;;
39094;SDS011;24840;47.508;19.376;2024-03-08T00:09:11;39.07;;;23.83;;
39094;SDS011;24840;47.508;19.376;2024-03-08T00:11:37;36.37;;;23.90;;
39094;SDS011;24840;47.508;19.376;2024-03-08T00:14:03;39.73;;;24.77;;
39094;SDS011;24840;47.508;19.376;2024-03-08T00:16:32;30.80;;;21.50;;
39094;SDS011;24840;47.508;19.376;2024-03-08T00:18:58;31.77;;;22.20;;
39094;SDS011;24840;47.508;19.376;2024-03-08T00:21:24;35.70;;;24.53;;
39094;SDS011;24840;47.508;19.376;2024-03-08T00:23:52;38.10;;;24.33;;
39094;SDS011;24840;47.508;19.376;2024-03-08T00:26:19;34.03;;;23.90;;
39094;SDS011;24840;47.508;19.376;2024-03-08T00:28:47;33.93;;;22.23;;
39094;SDS011;24840;47.508;19.376;2024-03-08T00:31:13;37.53;;;25.03;;
39094;SDS011;24840;47.508;19.376;2024-03-08T00:33:42;32.87;;;25.17;;
39094;SDS011;24840;47.508;19.376;2024-03-08T00:36:08;36.67;;;24.37;;
39094;SDS011;24840;47.508;19.376;2024-03-08T00:38:34;40.23;;;25.90;;
39094;SDS011;24840;47.508;19.376;2024-03-08T00:41:00;35.03;;;24.00;;
39094;SDS011;24840;47.508;19.376;2024-03-08T00:43:27;34.47;;;24.10;;
39094;SDS011;24840;47.508;19.376;2024-03-08T00:45:53;36.07;;;23.90;;
39094;SDS011;24840;47.508;19.376;2024-03-08T00:48:19;35.33;;;25.27;;
39094;SDS011;24840;47.508;19.376;2024-03-08T00:50:45;37.33;;;24.57;;
39094;SDS011;24840;47.508;19.376;2024-03-08T00:53:12;37.63;;;24.47;;
39094;SDS011;24840;47.508;19.376;2024-03-08T00:55:38;40.63;;;25.13;;
39094;SDS011;24840;47.508;19.376;2024-03-08T00:58:04;43.90;;;26.37;;
39094;SDS011;24840;47.508;19.376;2024-03-08T01:00:30;40.23;;;26.03;;
39094;SDS011;24840;47.508;19.376;2024-03-08T01:02:56;39.00;;;24.90;;
39094;SDS011;24840;47.508;19.376;2024-03-08T01:05:23;38.30;;;24.83;;
39094;SDS011;24840;47.508;19.376;2024-03-08T01:07:50;38.63;;;25.00;;
39094;SDS011;24840;47.508;19.376;2024-03-08T01:10:16;39.93;;;27.33;;
39094;SDS011;24840;47.508;19.376;2024-03-08T01:12:42;41.37;;;27.47;;
39094;SDS011;24840;47.508;19.376;2024-03-08T01:15:09;41.57;;;28.47;;
39094;SDS011;24840;47.508;19.376;2024-03-08T01:17:38;43.47;;;26.37;;
39094;SDS011;24840;47.508;19.376;2024-03-08T01:20:04;40.03;;;26.00;;
39094;SDS011;24840;47.508;19.376;2024-03-08T01:22:30;38.40;;;26.07;;
39094;SDS011;24840;47.508;19.376;2024-03-08T01:24:56;44.20;;;26.93;;
39094;SDS011;24840;47.508;19.376;2024-03-08T01:27:22;38.93;;;25.47;;
39094;SDS011;24840;47.508;19.376;2024-03-08T01:29:49;41.23;;;25.07;;
39094;SDS011;24840;47.508;19.376;2024-03-08T01:32:15;42.93;;;27.97;;
39094;SDS011;24840;47.508;19.376;2024-03-08T01:34:42;42.43;;;26.83;;
39094;SDS011;24840;47.508;19.376;2024-03-08T01:37:10;40.90;;;26.13;;
39094;SDS011;24840;47.508;19.376;2024-03-08T01:39:36;38.60;;;26.33;;
39094;SDS011;24840;47.508;19.376;2024-03-08T01:42:02;43.87;;;28.33;;
39094;SDS011;24840;47.508;19.376;2024-03-08T01:44:28;42.83;;;25.93;;
39094;SDS011;24840;47.508;19.376;2024-03-08T01:46:55;38.30;;;27.63;;
39094;SDS011;24840;47.508;19.376;2024-03-08T01:49:21;34.57;;;24.23;;
39094;SDS011;24840;47.508;19.376;2024-03-08T01:51:48;48.87;;;26.90;;
39094;SDS011;24840;47.508;19.376;2024-03-08T01:54:15;39.60;;;26.77;;
39094;SDS011;24840;47.508;19.376;2024-03-08T01:56:42;43.17;;;29.50;;
39094;SDS011;24840;47.508;19.376;2024-03-08T01:59:08;42.20;;;27.37;;
39094;SDS011;24840;47.508;19.376;2024-03-08T02:01:34;41.80;;;26.77;;
39094;SDS011;24840;47.508;19.376;2024-03-08T02:04:00;38.57;;;27.93;;
39094;SDS011;24840;47.508;19.376;2024-03-08T02:06:26;44.13;;;26.67;;
39094;SDS011;24840;47.508;19.376;2024-03-08T02:08:52;41.37;;;27.57;;
39094;SDS011;24840;47.508;19.376;2024-03-08T02:11:19;41.20;;;25.63;;
39094;SDS011;24840;47.508;19.376;2024-03-08T02:13:46;36.33;;;25.70;;
39094;SDS011;24840;47.508;19.376;2024-03-08T02:16:12;40.97;;;26.77;;
39094;SDS011;24840;47.508;19.376;2024-03-08T02:18:38;39.23;;;26.77;;
39094;SDS011;24840;47.508;19.376;2024-03-08T02:21:05;40.23;;;27.33;;
39094;SDS011;24840;47.508;19.376;2024-03-08T02:23:33;43.03;;;28.03;;
39094;SDS011;24840;47.508;19.376;2024-03-08T02:25:59;45.57;;;28.23;;
39094;SDS011;24840;47.508;19.376;2024-03-08T02:28:25;42.33;;;27.33;;
39094;SDS011;24840;47.508;19.376;2024-03-08T02:30:52;48.27;;;30.33;;
39094;SDS011;24840;47.508;19.376;2024-03-08T02:33:21;41.57;;;27.83;;
39094;SDS011;24840;47.508;19.376;2024-03-08T02:35:48;44.10;;;28.07;;
39094;SDS011;24840;47.508;19.376;2024-03-08T02:38:16;47.23;;;29.70;;
39094;SDS011;24840;47.508;19.376;2024-03-08T02:40:43;41.67;;;27.87;;
39094;SDS011;24840;47.508;19.376;2024-03-08T02:43:10;41.60;;;28.23;;
39094;SDS011;24840;47.508;19.376;2024-03-08T02:45:36;44.13;;;27.03;;
39094;SDS011;24840;47.508;19.376;2024-03-08T02:48:02;42.83;;;27.10;;
39094;SDS011;24840;47.508;19.376;2024-03-08T02:50:28;40.67;;;27.37;;
39094;SDS011;24840;47.508;19.376;2024-03-08T02:52:54;44.60;;;28.70;;
39094;SDS011;24840;47.508;19.376;2024-03-08T02:55:21;52.63;;;29.80;;
39094;SDS011;24840;47.508;19.376;2024-03-08T02:57:47;41.20;;;26.97;;
39094;SDS011;24840;47.508;19.376;2024-03-08T03:00:13;39.27;;;26.50;;
39094;SDS011;24840;47.508;19.376;2024-03-08T03:02:40;40.60;;;26.93;;
39094;SDS011;24840;47.508;19.376;2024-03-08T03:05:07;43.77;;;28.77;;
39094;SDS011;24840;47.508;19.376;2024-03-08T03:07:37;45.13;;;28.13;;
39094;SDS011;24840;47.508;19.376;2024-03-08T03:10:03;42.10;;;28.03;;
39094;SDS011;24840;47.508;19.376;2024-03-08T03:12:30;42.40;;;30.00;;
39094;SDS011;24840;47.508;19.376;2024-03-08T03:14:56;42.07;;;27.23;;
39094;SDS011;24840;47.508;19.376;2024-03-08T03:17:25;42.23;;;27.30;;
39094;SDS011;24840;47.508;19.376;2024-03-08T03:19:52;48.70;;;32.23;;
39094;SDS011;24840;47.508;19.376;2024-03-08T03:22:20;42.70;;;29.63;;
39094;SDS011;24840;47.508;19.376;2024-03-08T03:24:46;47.80;;;27.23;;
39094;SDS011;24840;47.508;19.376;2024-03-08T03:27:13;37.63;;;26.17;;
39094;SDS011;24840;47.508;19.376;2024-03-08T03:29:40;46.87;;;29.17;;
39094;SDS011;24840;47.508;19.376;2024-03-08T03:32:10;40.97;;;28.80;;
39094;SDS011;24840;47.508;19.376;2024-03-08T03:34:37;41.97;;;27.57;;
39094;SDS011;24840;47.508;19.376;2024-03-08T03:37:03;43.83;;;29.07;;
39094;SDS011;24840;47.508;19.376;2024-03-08T03:39:29;44.47;;;29.93;;
39094;SDS011;24840;47.508;19.376;2024-03-08T03:42:13;43.07;;;28.10;;
39094;SDS011;24840;47.508;19.376;2024-03-08T03:44:39;41.07;;;28.10;;
39094;SDS011;24840;47.508;19.376;2024-03-08T03:47:06;44.37;;;28.20;;
39094;SDS011;24840;47.508;19.376;2024-03-08T03:49:32;43.43;;;29.50;;
39094;SDS011;24840;47.508;19.376;2024-03-08T03:51:58;45.93;;;28.90;;
39094;SDS011;24840;47.508;19.376;2024-03-08T03:54:25;44.83;;;29.10;;
39094;SDS011;24840;47.508;19.376;2024-03-08T03:56:51;44.57;;;27.70;;
39094;SDS011;24840;47.508;19.376;2024-03-08T03:59:18;42.77;;;28.13;;
39094;SDS011;24840;47.508;19.376;2024-03-08T04:01:44;47.17;;;31.20;;
39094;SDS011;24840;47.508;19.376;2024-03-08T04:04:10;46.33;;;28.60;;
39094;SDS011;24840;47.508;19.376;2024-03-08T04:06:37;47.27;;;30.87;;
39094;SDS011;24840;47.508;19.376;2024-03-08T04:09:03;48.20;;;29.40;;
39094;SDS011;24840;47.508;19.376;2024-03-08T04:11:29;43.47;;;28.50;;
39094;SDS011;24840;47.508;19.376;2024-03-08T04:13:55;43.40;;;27.17;;
39094;SDS011;24840;47.508;19.376;2024-03-08T04:16:22;39.47;;;27.97;;
39094;SDS011;24840;47.508;19.376;2024-03-08T04:18:48;44.77;;;29.27;;
39094;SDS011;24840;47.508;19.376;2024-03-08T04:21:14;43.63;;;27.83;;
39094;SDS011;24840;47.508;19.376;2024-03-08T04:23:40;42.13;;;28.83;;
39094;SDS011;24840;47.508;19.376;2024-03-08T04:26:08;40.50;;;26.93;;
39094;SDS011;24840;47.508;19.376;2024-03-08T04:28:34;45.40;;;30.63;;
39094;SDS011;24840;47.508;19.376;2024-03-08T04:31:02;45.40;;;28.37;;
39094;SDS011;24840;47.508;19.376;2024-03-08T04:33:28;46.23;;;30.67;;
39094;SDS011;24840;47.508;19.376;2024-03-08T04:35:54;43.27;;;27.63;;
39094;SDS011;24840;47.508;19.376;2024-03-08T04:38:20;44.77;;;27.43;;
39094;SDS011;24840;47.508;19.376;2024-03-08T04:40:46;42.47;;;27.83;;
39094;SDS011;24840;47.508;19.376;2024-03-08T04:43:12;40.30;;;27.73;;
39094;SDS011;24840;47.508;19.376;2024-03-08T04:45:39;42.20;;;27.60;;
39094;SDS011;24840;47.508;19.376;2024-03-08T04:48:08;44.17;;;29.53;;
39094;SDS011;24840;47.508;19.376;2024-03-08T04:50:34;44.37;;;28.80;;
39094;SDS011;24840;47.508;19.376;2024-03-08T04:53:01;51.77;;;32.37;;
39094;SDS011;24840;47.508;19.376;2024-03-08T04:55:28;44.90;;;28.93;;
39094;SDS011;24840;47.508;19.376;2024-03-08T04:57:54;47.00;;;30.50;;
39094;SDS011;24840;47.508;19.376;2024-03-08T05:00:20;48.13;;;28.00;;
39094;SDS011;24840;47.508;19.376;2024-03-08T05:02:46;42.60;;;28.50;;
39094;SDS011;24840;47.508;19.376;2024-03-08T05:05:12;44.37;;;31.33;;
39094;SDS011;24840;47.508;19.376;2024-03-08T05:07:39;43.73;;;28.83;;
39094;SDS011;24840;47.508;19.376;2024-03-08T05:10:05;46.83;;;30.83;;
39094;SDS011;24840;47.508;19.376;2024-03-08T05:12:32;45.40;;;29.00;;
39094;SDS011;24840;47.508;19.376;2024-03-08T05:14:58;43.53;;;29.97;;
39094;SDS011;24840;47.508;19.376;2024-03-08T05:17:24;43.70;;;27.83;;
39094;SDS011;24840;47.508;19.376;2024-03-08T05:19:50;45.53;;;29.13;;
39094;SDS011;24840;47.508;19.376;2024-03-08T05:22:16;45.87;;;28.40;;
39094;SDS011;24840;47.508;19.376;2024-03-08T05:24:43;45.47;;;31.50;;
39094;SDS011;24840;47.508;19.376;2024-03-08T05:27:09;44.07;;;28.77;;
39094;SDS011;24840;47.508;19.376;2024-03-08T05:29:36;44.33;;;27.97;;
39094;SDS011;24840;47.508;19.376;2024-03-08T05:32:02;44.67;;;29.73;;
39094;SDS011;24840;47.508;19.376;2024-03-08T05:34:29;42.47;;;27.53;;
39094;SDS011;24840;47.508;19.376;2024-03-08T05:36:55;42.43;;;27.10;;
39094;SDS011;24840;47.508;19.376;2024-03-08T05:39:23;45.83;;;29.53;;
39094;SDS011;24840;47.508;19.376;2024-03-08T05:41:49;48.07;;;31.47;;
39094;SDS011;24840;47.508;19.376;2024-03-08T05:44:15;44.37;;;27.23;;
39094;SDS011;24840;47.508;19.376;2024-03-08T05:46:45;44.70;;;29.23;;
39094;SDS011;24840;47.508;19.376;2024-03-08T05:49:14;45.97;;;29.17;;
39094;SDS011;24840;47.508;19.376;2024-03-08T05:51:40;47.47;;;30.10;;
39094;SDS011;24840;47.508;19.376;2024-03-08T05:54:07;45.03;;;28.03;;
39094;SDS011;24840;47.508;19.376;2024-03-08T05:56:36;48.63;;;29.40;;
39094;SDS011;24840;47.508;19.376;2024-03-08T05:59:03;37.40;;;26.10;;
39094;SDS011;24840;47.508;19.376;2024-03-08T06:01:29;45.80;;;29.27;;
39094;SDS011;24840;47.508;19.376;2024-03-08T06:03:56;47.40;;;29.43;;
39094;SDS011;24840;47.508;19.376;2024-03-08T06:06:22;48.17;;;29.97;;
39094;SDS011;24840;47.508;19.376;2024-03-08T06:08:49;41.03;;;26.50;;
39094;SDS011;24840;47.508;19.376;2024-03-08T06:11:16;44.37;;;28.07;;
39094;SDS011;24840;47.508;19.376;2024-03-08T06:13:48;44.93;;;29.20;;
39094;SDS011;24840;47.508;19.376;2024-03-08T06:16:15;43.40;;;30.43;;
39094;SDS011;24840;47.508;19.376;2024-03-08T06:18:41;49.33;;;30.07;;
39094;SDS011;24840;47.508;19.376;2024-03-08T06:21:07;48.87;;;31.67;;
39094;SDS011;24840;47.508;19.376;2024-03-08T06:23:37;46.70;;;29.20;;
39094;SDS011;24840;47.508;19.376;2024-03-08T06:26:12;45.37;;;29.67;;
39094;SDS011;24840;47.508;19.376;2024-03-08T06:28:38;44.00;;;28.93;;
39094;SDS011;24840;47.508;19.376;2024-03-08T06:31:04;45.60;;;29.10;;
39094;SDS011;24840;47.508;19.376;2024-03-08T06:33:30;44.20;;;28.20;;
39094;SDS011;24840;47.508;19.376;2024-03-08T06:35:57;40.87;;;26.87;;
39094;SDS011;24840;47.508;19.376;2024-03-08T06:38:23;44.20;;;29.40;;
39094;SDS011;24840;47.508;19.376;2024-03-08T06:40:50;41.40;;;28.33;;
39094;SDS011;24840;47.508;19.376;2024-03-08T06:43:16;44.33;;;27.00;;
39094;SDS011;24840;47.508;19.376;2024-03-08T06:45:43;41.07;;;28.00;;
39094;SDS011;24840;47.508;19.376;2024-03-08T06:48:18;40.97;;;27.48;;
39094;SDS011;24840;47.508;19.376;2024-03-08T06:50:44;40.40;;;26.70;;
39094;SDS011;24840;47.508;19.376;2024-03-08T06:53:11;43.33;;;29.37;;
39094;SDS011;24840;47.508;19.376;2024-03-08T06:55:37;42.80;;;27.53;;
39094;SDS011;24840;47.508;19.376;2024-03-08T06:58:03;37.90;;;25.20;;
39094;SDS011;24840;47.508;19.376;2024-03-08T07:00:29;46.10;;;27.53;;
39094;SDS011;24840;47.508;19.376;2024-03-08T07:02:56;46.97;;;27.90;;
39094;SDS011;24840;47.508;19.376;2024-03-08T07:05:26;43.10;;;27.10;;
39094;SDS011;24840;47.508;19.376;2024-03-08T07:07:52;38.30;;;25.13;;
39094;SDS011;24840;47.508;19.376;2024-03-08T07:10:20;45.13;;;27.47;;
39094;SDS011;24840;47.508;19.376;2024-03-08T07:12:46;42.73;;;28.47;;
39094;SDS011;24840;47.508;19.376;2024-03-08T07:15:12;40.17;;;27.63;;
39094;SDS011;24840;47.508;19.376;2024-03-08T07:17:39;37.87;;;26.50;;
39094;SDS011;24840;47.508;19.376;2024-03-08T07:20:05;48.97;;;28.30;;
39094;SDS011;24840;47.508;19.376;2024-03-08T07:22:37;41.42;;;26.65;;
39094;SDS011;24840;47.508;19.376;2024-03-08T07:25:06;43.70;;;26.87;;
39094;SDS011;24840;47.508;19.376;2024-03-08T07:27:35;45.13;;;28.42;;
39094;SDS011;24840;47.508;19.376;2024-03-08T07:30:01;44.50;;;29.57;;
39094;SDS011;24840;47.508;19.376;2024-03-08T07:32:27;45.30;;;29.53;;
39094;SDS011;24840;47.508;19.376;2024-03-08T07:34:55;50.03;;;29.63;;
39094;SDS011;24840;47.508;19.376;2024-03-08T07:37:21;45.10;;;27.47;;
39094;SDS011;24840;47.508;19.376;2024-03-08T07:39:48;44.93;;;28.93;;
39094;SDS011;24840;47.508;19.376;2024-03-08T07:42:15;42.93;;;27.43;;
39094;SDS011;24840;47.508;19.376;2024-03-08T07:44:42;41.97;;;27.17;;
39094;SDS011;24840;47.508;19.376;2024-03-08T07:47:08;46.00;;;27.23;;
39094;SDS011;24840;47.508;19.376;2024-03-08T07:49:37;43.87;;;28.50;;
39094;SDS011;24840;47.508;19.376;2024-03-08T07:52:04;43.10;;;26.50;;
39094;SDS011;24840;47.508;19.376;2024-03-08T07:54:32;43.87;;;28.33;;
39094;SDS011;24840;47.508;19.376;2024-03-08T07:56:58;47.33;;;29.67;;
39094;SDS011;24840;47.508;19.376;2024-03-08T07:59:24;57.47;;;30.43;;
39094;SDS011;24840;47.508;19.376;2024-03-08T08:01:50;56.27;;;31.27;;
39094;SDS011;24840;47.508;19.376;2024-03-08T08:04:16;51.40;;;27.87;;
39094;SDS011;24840;47.508;19.376;2024-03-08T08:06:43;48.43;;;28.53;;
39094;SDS011;24840;47.508;19.376;2024-03-08T08:09:09;54.67;;;30.93;;
39094;SDS011;24840;47.508;19.376;2024-03-08T08:11:53;53.50;;;31.27;;
39094;SDS011;24840;47.508;19.376;2024-03-08T08:14:19;59.13;;;30.87;;
39094;SDS011;24840;47.508;19.376;2024-03-08T08:16:46;53.27;;;30.37;;
39094;SDS011;24840;47.508;19.376;2024-03-08T08:19:13;50.67;;;28.30;;
39094;SDS011;24840;47.508;19.376;2024-03-08T08:21:39;49.57;;;29.40;;
39094;SDS011;24840;47.508;19.376;2024-03-08T08:24:05;50.83;;;30.83;;
39094;SDS011;24840;47.508;19.376;2024-03-08T08:26:31;52.27;;;31.23;;
39094;SDS011;24840;47.508;19.376;2024-03-08T08:28:59;50.63;;;30.27;;
39094;SDS011;24840;47.508;19.376;2024-03-08T08:31:25;53.47;;;31.80;;
39094;SDS011;24840;47.508;19.376;2024-03-08T08:33:52;57.57;;;32.30;;
39094;SDS011;24840;47.508;19.376;2024-03-08T08:36:23;53.53;;;31.70;;
39094;SDS011;24840;47.508;19.376;2024-03-08T08:38:49;65.33;;;31.90;;
39094;SDS011;24840;47.508;19.376;2024-03-08T08:41:15;57.87;;;31.67;;
39094;SDS011;24840;47.508;19.376;2024-03-08T08:43:42;60.07;;;32.23;;
39094;SDS011;24840;47.508;19.376;2024-03-08T08:46:09;56.33;;;33.40;;
39094;SDS011;24840;47.508;19.376;2024-03-08T08:48:40;53.03;;;30.80;;
39094;SDS011;24840;47.508;19.376;2024-03-08T08:51:06;56.10;;;32.80;;
39094;SDS011;24840;47.508;19.376;2024-03-08T08:53:38;55.15;;;31.75;;
39094;SDS011;24840;47.508;19.376;2024-03-08T08:56:07;59.80;;;33.17;;
39094;SDS011;24840;47.508;19.376;2024-03-08T08:58:33;59.03;;;31.50;;
39094;SDS011;24840;47.508;19.376;2024-03-08T09:00:59;54.83;;;32.03;;
39094;SDS011;24840;47.508;19.376;2024-03-08T09:03:26;56.67;;;32.70;;
39094;SDS011;24840;47.508;19.376;2024-03-08T09:05:54;53.07;;;32.03;;
39094;SDS011;24840;47.508;19.376;2024-03-08T09:08:21;56.10;;;29.27;;
39094;SDS011;24840;47.508;19.376;2024-03-08T09:10:48;51.47;;;30.27;;
39094;SDS011;24840;47.508;19.376;2024-03-08T09:13:14;53.23;;;33.10;;
39094;SDS011;24840;47.508;19.376;2024-03-08T09:15:41;53.13;;;31.17;;
39094;SDS011;24840;47.508;19.376;2024-03-08T09:18:08;44.67;;;28.57;;
39094;SDS011;24840;47.508;19.376;2024-03-08T09:20:35;48.57;;;29.27;;
39094;SDS011;24840;47.508;19.376;2024-03-08T09:23:02;49.80;;;29.30;;
39094;SDS011;24840;47.508;19.376;2024-03-08T09:25:29;50.53;;;28.17;;
39094;SDS011;24840;47.508;19.376;2024-03-08T09:27:55;53.67;;;30.60;;
39094;SDS011;24840;47.508;19.376;2024-03-08T09:30:21;49.63;;;29.13;;
39094;SDS011;24840;47.508;19.376;2024-03-08T09:32:47;45.83;;;29.20;;
39094;SDS011;24840;47.508;19.376;2024-03-08T09:35:16;48.57;;;28.10;;
39094;SDS011;24840;47.508;19.376;2024-03-08T09:37:42;48.27;;;28.97;;
39094;SDS011;24840;47.508;19.376;2024-03-08T09:40:08;56.83;;;30.27;;
39094;SDS011;24840;47.508;19.376;2024-03-08T09:42:34;47.67;;;28.83;;
39094;SDS011;24840;47.508;19.376;2024-03-08T09:45:08;49.50;;;29.37;;
39094;SDS011;24840;47.508;19.376;2024-03-08T09:47:42;49.30;;;31.57;;
39094;SDS011;24840;47.508;19.376;2024-03-08T09:50:08;50.97;;;30.97;;
39094;SDS011;24840;47.508;19.376;2024-03-08T09:52:46;48.33;;;29.10;;
39094;SDS011;24840;47.508;19.376;2024-03-08T09:55:12;49.80;;;28.25;;
39094;SDS011;24840;47.508;19.376;2024-03-08T09:57:41;50.37;;;29.23;;
39094;SDS011;24840;47.508;19.376;2024-03-08T10:00:28;47.75;;;28.92;;
39094;SDS011;24840;47.508;19.376;2024-03-08T10:02:59;46.77;;;26.63;;
39094;SDS011;24840;47.508;19.376;2024-03-08T10:05:26;50.33;;;29.08;;
39094;SDS011;24840;47.508;19.376;2024-03-08T10:07:52;83.35;;;29.65;;
39094;SDS011;24840;47.508;19.376;2024-03-08T10:10:18;49.92;;;29.10;;
39094;SDS011;24840;47.508;19.376;2024-03-08T10:12:45;44.70;;;26.23;;
39094;SDS011;24840;47.508;19.376;2024-03-08T10:15:11;38.53;;;25.35;;
39094;SDS011;24840;47.508;19.376;2024-03-08T10:17:37;40.30;;;25.63;;
39094;SDS011;24840;47.508;19.376;2024-03-08T10:20:13;42.22;;;26.17;;
39094;SDS011;24840;47.508;19.376;2024-03-08T10:22:40;44.58;;;26.85;;
39094;SDS011;24840;47.508;19.376;2024-03-08T10:25:09;46.22;;;27.45;;
39094;SDS011;24840;47.508;19.376;2024-03-08T10:27:36;42.20;;;27.27;;
39094;SDS011;24840;47.508;19.376;2024-03-08T10:30:02;48.17;;;29.17;;
39094;SDS011;24840;47.508;19.376;2024-03-08T10:32:28;44.47;;;26.00;;
39094;SDS011;24840;47.508;19.376;2024-03-08T10:34:54;40.63;;;27.92;;
39094;SDS011;24840;47.508;19.376;2024-03-08T10:37:21;43.63;;;25.33;;
39094;SDS011;24840;47.508;19.376;2024-03-08T10:40:00;42.33;;;26.38;;
39094;SDS011;24840;47.508;19.376;2024-03-08T10:42:35;43.72;;;27.23;;
39094;SDS011;24840;47.508;19.376;2024-03-08T10:45:05;47.10;;;27.75;;
39094;SDS011;24840;47.508;19.376;2024-03-08T10:47:33;39.47;;;26.00;;
39094;SDS011;24840;47.508;19.376;2024-03-08T10:50:07;41.83;;;25.90;;
39094;SDS011;24840;47.508;19.376;2024-03-08T10:52:38;45.00;;;27.88;;
39094;SDS011;24840;47.508;19.376;2024-03-08T10:55:04;41.30;;;26.33;;
39094;SDS011;24840;47.508;19.376;2024-03-08T10:57:37;44.42;;;28.38;;
39094;SDS011;24840;47.508;19.376;2024-03-08T11:00:04;40.47;;;25.73;;
39094;SDS011;24840;47.508;19.376;2024-03-08T11:02:35;39.47;;;23.63;;
39094;SDS011;24840;47.508;19.376;2024-03-08T11:05:02;40.05;;;26.58;;
39094;SDS011;24840;47.508;19.376;2024-03-08T11:07:30;36.13;;;25.42;;
39094;SDS011;24840;47.508;19.376;2024-03-08T11:10:02;42.28;;;24.92;;
39094;SDS011;24840;47.508;19.376;2024-03-08T11:12:35;36.33;;;24.05;;
39094;SDS011;24840;47.508;19.376;2024-03-08T11:15:02;36.85;;;24.83;;
39094;SDS011;24840;47.508;19.376;2024-03-08T11:20:03;38.45;;;26.13;;
39094;SDS011;24840;47.508;19.376;2024-03-08T11:22:40;41.13;;;27.38;;
39094;SDS011;24840;47.508;19.376;2024-03-08T11:25:08;35.83;;;24.42;;
39094;SDS011;24840;47.508;19.376;2024-03-08T11:27:36;38.65;;;22.88;;
39094;SDS011;24840;47.508;19.376;2024-03-08T11:30:06;33.42;;;24.73;;
39094;SDS011;24840;47.508;19.376;2024-03-08T11:32:50;37.83;;;24.80;;
39094;SDS011;24840;47.508;19.376;2024-03-08T11:35:21;39.40;;;25.73;;
39094;SDS011;24840;47.508;19.376;2024-03-08T11:37:50;35.70;;;24.17;;
39094;SDS011;24840;47.508;19.376;2024-03-08T11:40:16;36.42;;;25.48;;
39094;SDS011;24840;47.508;19.376;2024-03-08T11:42:49;35.45;;;24.20;;
39094;SDS011;24840;47.508;19.376;2024-03-08T11:45:16;37.35;;;25.10;;
39094;SDS011;24840;47.508;19.376;2024-03-08T11:47:45;43.83;;;25.05;;
39094;SDS011;24840;47.508;19.376;2024-03-08T11:50:15;39.03;;;23.65;;
39094;SDS011;24840;47.508;19.376;2024-03-08T11:52:41;39.67;;;23.85;;
39094;SDS011;24840;47.508;19.376;2024-03-08T11:55:08;39.90;;;25.52;;
39094;SDS011;24840;47.508;19.376;2024-03-08T11:57:34;39.08;;;27.42;;
39094;SDS011;24840;47.508;19.376;2024-03-08T12:00:00;39.45;;;26.67;;
39094;SDS011;24840;47.508;19.376;2024-03-08T12:02:32;41.38;;;27.30;;
39094;SDS011;24840;47.508;19.376;2024-03-08T12:05:00;44.20;;;28.17;;
39094;SDS011;24840;47.508;19.376;2024-03-08T12:07:28;47.38;;;27.05;;
39094;SDS011;24840;47.508;19.376;2024-03-08T12:12:43;51.00;;;30.08;;
39094;SDS011;24840;47.508;19.376;2024-03-08T12:15:09;52.13;;;29.27;;
39094;SDS011;24840;47.508;19.376;2024-03-08T12:17:36;46.80;;;29.50;;
39094;SDS011;24840;47.508;19.376;2024-03-08T12:22:43;42.30;;;29.55;;
39094;SDS011;24840;47.508;19.376;2024-03-08T12:25:10;40.38;;;27.27;;
39094;SDS011;24840;47.508;19.376;2024-03-08T12:27:40;41.63;;;28.33;;
39094;SDS011;24840;47.508;19.376;2024-03-08T12:30:25;53.60;;;27.80;;
39094;SDS011;24840;47.508;19.376;2024-03-08T12:35:24;40.70;;;29.27;;
39094;SDS011;24840;47.508;19.376;2024-03-08T12:37:50;41.90;;;27.40;;
39094;SDS011;24840;47.508;19.376;2024-03-08T12:40:17;41.05;;;27.48;;
39094;SDS011;24840;47.508;19.376;2024-03-08T12:42:44;42.08;;;26.73;;
39094;SDS011;24840;47.508;19.376;2024-03-08T12:45:14;46.13;;;28.20;;
39094;SDS011;24840;47.508;19.376;2024-03-08T12:47:40;38.97;;;26.25;;
39094;SDS011;24840;47.508;19.376;2024-03-08T12:50:07;47.22;;;27.70;;
39094;SDS011;24840;47.508;19.376;2024-03-08T12:52:33;35.53;;;24.48;;
39094;SDS011;24840;47.508;19.376;2024-03-08T12:54:59;36.00;;;25.15;;
39094;SDS011;24840;47.508;19.376;2024-03-08T12:57:28;38.95;;;24.83;;
39094;SDS011;24840;47.508;19.376;2024-03-08T12:59:54;38.17;;;24.63;;
39094;SDS011;24840;47.508;19.376;2024-03-08T13:02:21;39.08;;;27.20;;
39094;SDS011;24840;47.508;19.376;2024-03-08T13:04:49;40.75;;;27.48;;
39094;SDS011;24840;47.508;19.376;2024-03-08T13:07:22;44.17;;;24.95;;
39094;SDS011;24840;47.508;19.376;2024-03-08T13:09:51;40.53;;;26.88;;
39094;SDS011;24840;47.508;19.376;2024-03-08T13:12:17;38.17;;;26.15;;
39094;SDS011;24840;47.508;19.376;2024-03-08T13:14:45;38.13;;;25.10;;
39094;SDS011;24840;47.508;19.376;2024-03-08T13:17:11;39.75;;;26.35;;
39094;SDS011;24840;47.508;19.376;2024-03-08T13:19:37;38.38;;;25.48;;
39094;SDS011;24840;47.508;19.376;2024-03-08T13:22:04;38.50;;;27.40;;
39094;SDS011;24840;47.508;19.376;2024-03-08T13:24:30;38.80;;;26.05;;
39094;SDS011;24840;47.508;19.376;2024-03-08T13:26:56;43.00;;;25.73;;
39094;SDS011;24840;47.508;19.376;2024-03-08T13:29:24;36.95;;;25.25;;
39094;SDS011;24840;47.508;19.376;2024-03-08T13:31:51;42.30;;;26.75;;
39094;SDS011;24840;47.508;19.376;2024-03-08T13:34:18;41.63;;;26.40;;
39094;SDS011;24840;47.508;19.376;2024-03-08T13:36:52;40.50;;;25.08;;
39094;SDS011;24840;47.508;19.376;2024-03-08T13:39:19;38.90;;;25.55;;
39094;SDS011;24840;47.508;19.376;2024-03-08T13:41:46;37.22;;;24.10;;
39094;SDS011;24840;47.508;19.376;2024-03-08T13:44:12;44.03;;;25.80;;
39094;SDS011;24840;47.508;19.376;2024-03-08T13:46:38;41.95;;;25.25;;
39094;SDS011;24840;47.508;19.376;2024-03-08T13:49:04;41.40;;;24.55;;
39094;SDS011;24840;47.508;19.376;2024-03-08T13:51:33;40.63;;;25.40;;
39094;SDS011;24840;47.508;19.376;2024-03-08T13:53:59;37.78;;;25.48;;
39094;SDS011;24840;47.508;19.376;2024-03-08T13:56:26;41.05;;;27.55;;
39094;SDS011;24840;47.508;19.376;2024-03-08T13:58:52;43.95;;;28.70;;
39094;SDS011;24840;47.508;19.376;2024-03-08T14:01:21;39.30;;;27.67;;
39094;SDS011;24840;47.508;19.376;2024-03-08T14:03:47;36.92;;;25.48;;
39094;SDS011;24840;47.508;19.376;2024-03-08T14:06:13;43.30;;;28.10;;
39094;SDS011;24840;47.508;19.376;2024-03-08T14:08:39;40.90;;;26.80;;
39094;SDS011;24840;47.508;19.376;2024-03-08T14:11:05;37.30;;;26.88;;
39094;SDS011;24840;47.508;19.376;2024-03-08T14:13:41;40.60;;;25.23;;
39094;SDS011;24840;47.508;19.376;2024-03-08T14:18:35;44.95;;;27.98;;
39094;SDS011;24840;47.508;19.376;2024-03-08T14:21:02;38.70;;;25.60;;
39094;SDS011;24840;47.508;19.376;2024-03-08T14:23:29;41.88;;;25.17;;